Madisonville, Texas
Current Conditions -  °F | °C
As of 1:53 AM on Monday 22 Dec 2014 (Local Time) from KUTS Reporting Station
Overcast Overcast  
Wind Chill: 56°   Ceiling: 600
Heat Index: 56°   Visibility: 7mi
Dew Point: 53°   Wind: 12mph
Humidity: 90%   Direction: 160°SSE
Pressure: 29.81"   Gusts: NA
Location:  30.95°N, 95.91°W
Report Text: KUTS 220753Z AUTO 16010KT 7SM OVC006 13/12 A2981 RMK AO2 SLP092 T01330117
Loading
Personal Weather Stations






























Interactive Weather Map New forecast layout! Learn more

10-Day Weather Forecast

Advertisements
Track Severe Weather on mobile